sensor_id;sensor_type;location;lat;lon;timestamp;P1;durP1;ratioP1;P2;durP2;ratioP2
47021;SDS011;32779;52.264;6.154;2022-07-04T00:02:17;3.85;;;1.45;;
47021;SDS011;32779;52.264;6.154;2022-07-04T00:07:08;3.22;;;1.20;;
47021;SDS011;32779;52.264;6.154;2022-07-04T00:11:59;3.67;;;1.60;;
47021;SDS011;32779;52.264;6.154;2022-07-04T00:16:50;4.47;;;1.80;;
47021;SDS011;32779;52.264;6.154;2022-07-04T00:21:41;3.33;;;1.42;;
47021;SDS011;32779;52.264;6.154;2022-07-04T00:24:07;2.28;;;1.60;;
47021;SDS011;32779;52.264;6.154;2022-07-04T00:28:58;2.42;;;1.58;;
47021;SDS011;32779;52.264;6.154;2022-07-04T00:33:49;2.47;;;1.63;;
47021;SDS011;32779;52.264;6.154;2022-07-04T00:38:40;2.95;;;1.60;;
47021;SDS011;32779;52.264;6.154;2022-07-04T00:43:31;5.43;;;1.70;;
47021;SDS011;32779;52.264;6.154;2022-07-04T00:48:22;4.18;;;1.70;;
47021;SDS011;32779;52.264;6.154;2022-07-04T00:53:14;2.88;;;1.70;;
47021;SDS011;32779;52.264;6.154;2022-07-04T00:58:06;5.78;;;1.80;;
47021;SDS011;32779;52.264;6.154;2022-07-04T01:00:32;4.38;;;2.05;;
47021;SDS011;32779;52.264;6.154;2022-07-04T01:02:58;2.15;;;1.70;;
47021;SDS011;32779;52.264;6.154;2022-07-04T01:07:50;5.55;;;1.73;;
47021;SDS011;32779;52.264;6.154;2022-07-04T01:10:15;3.85;;;1.75;;
47021;SDS011;32779;52.264;6.154;2022-07-04T01:15:07;4.82;;;2.15;;
47021;SDS011;32779;52.264;6.154;2022-07-04T01:17:33;2.30;;;1.85;;
47021;SDS011;32779;52.264;6.154;2022-07-04T01:20:00;4.13;;;2.00;;
47021;SDS011;32779;52.264;6.154;2022-07-04T01:22:25;3.58;;;1.58;;
47021;SDS011;32779;52.264;6.154;2022-07-04T01:27:17;7.28;;;2.10;;
47021;SDS011;32779;52.264;6.154;2022-07-04T01:29:45;3.72;;;1.60;;
47021;SDS011;32779;52.264;6.154;2022-07-04T01:32:11;3.72;;;1.58;;
47021;SDS011;32779;52.264;6.154;2022-07-04T01:37:03;6.13;;;1.80;;
47021;SDS011;32779;52.264;6.154;2022-07-04T01:41:55;6.55;;;2.47;;
47021;SDS011;32779;52.264;6.154;2022-07-04T01:44:21;4.85;;;2.28;;
47021;SDS011;32779;52.264;6.154;2022-07-04T01:46:47;3.60;;;1.85;;
47021;SDS011;32779;52.264;6.154;2022-07-04T01:51:45;5.50;;;2.08;;
47021;SDS011;32779;52.264;6.154;2022-07-04T01:54:11;5.43;;;2.35;;
47021;SDS011;32779;52.264;6.154;2022-07-04T01:56:37;5.65;;;2.28;;
47021;SDS011;32779;52.264;6.154;2022-07-04T02:01:29;4.80;;;2.00;;
47021;SDS011;32779;52.264;6.154;2022-07-04T02:03:55;6.45;;;2.15;;
47021;SDS011;32779;52.264;6.154;2022-07-04T02:06:21;5.88;;;2.78;;
47021;SDS011;32779;52.264;6.154;2022-07-04T02:08:47;4.15;;;2.40;;
47021;SDS011;32779;52.264;6.154;2022-07-04T02:11:31;3.35;;;2.25;;
47021;SDS011;32779;52.264;6.154;2022-07-04T02:14:16;4.00;;;2.33;;
47021;SDS011;32779;52.264;6.154;2022-07-04T02:16:42;3.10;;;2.20;;
47021;SDS011;32779;52.264;6.154;2022-07-04T02:19:07;2.47;;;1.83;;
47021;SDS011;32779;52.264;6.154;2022-07-04T02:21:33;4.45;;;2.53;;
47021;SDS011;32779;52.264;6.154;2022-07-04T02:26:24;5.53;;;2.45;;
47021;SDS011;32779;52.264;6.154;2022-07-04T02:28:51;4.32;;;2.95;;
47021;SDS011;32779;52.264;6.154;2022-07-04T02:31:17;3.13;;;2.50;;
47021;SDS011;32779;52.264;6.154;2022-07-04T02:33:42;7.55;;;3.50;;
47021;SDS011;32779;52.264;6.154;2022-07-04T02:38:34;6.63;;;2.78;;
47021;SDS011;32779;52.264;6.154;2022-07-04T02:40:59;5.40;;;2.88;;
47021;SDS011;32779;52.264;6.154;2022-07-04T02:45:50;5.60;;;3.00;;
47021;SDS011;32779;52.264;6.154;2022-07-04T02:48:16;5.25;;;2.88;;
47021;SDS011;32779;52.264;6.154;2022-07-04T02:53:07;3.20;;;2.58;;
47021;SDS011;32779;52.264;6.154;2022-07-04T02:57:58;5.70;;;2.80;;
47021;SDS011;32779;52.264;6.154;2022-07-04T03:02:49;7.72;;;2.53;;
47021;SDS011;32779;52.264;6.154;2022-07-04T03:07:40;4.28;;;2.63;;
47021;SDS011;32779;52.264;6.154;2022-07-04T03:10:06;8.40;;;3.20;;
47021;SDS011;32779;52.264;6.154;2022-07-04T03:12:32;5.07;;;3.40;;
47021;SDS011;32779;52.264;6.154;2022-07-04T03:14:58;7.57;;;2.75;;
47021;SDS011;32779;52.264;6.154;2022-07-04T03:17:24;6.60;;;3.08;;
47021;SDS011;32779;52.264;6.154;2022-07-04T03:19:50;4.53;;;2.75;;
47021;SDS011;32779;52.264;6.154;2022-07-04T03:22:16;6.05;;;2.97;;
47021;SDS011;32779;52.264;6.154;2022-07-04T03:27:07;3.75;;;2.70;;
47021;SDS011;32779;52.264;6.154;2022-07-04T03:29:33;5.63;;;2.78;;
47021;SDS011;32779;52.264;6.154;2022-07-04T03:32:00;6.32;;;3.30;;
47021;SDS011;32779;52.264;6.154;2022-07-04T03:34:25;5.72;;;3.65;;
47021;SDS011;32779;52.264;6.154;2022-07-04T03:36:51;6.32;;;3.38;;
47021;SDS011;32779;52.264;6.154;2022-07-04T03:39:17;5.28;;;3.35;;
47021;SDS011;32779;52.264;6.154;2022-07-04T03:44:08;7.60;;;3.15;;
47021;SDS011;32779;52.264;6.154;2022-07-04T03:48:59;4.72;;;2.72;;
47021;SDS011;32779;52.264;6.154;2022-07-04T03:51:24;7.40;;;2.88;;
47021;SDS011;32779;52.264;6.154;2022-07-04T03:56:16;5.38;;;2.67;;
47021;SDS011;32779;52.264;6.154;2022-07-04T03:58:41;7.13;;;2.80;;
47021;SDS011;32779;52.264;6.154;2022-07-04T04:03:33;7.45;;;2.88;;
47021;SDS011;32779;52.264;6.154;2022-07-04T04:06:18;9.15;;;2.97;;
47021;SDS011;32779;52.264;6.154;2022-07-04T04:08:43;9.52;;;2.90;;
47021;SDS011;32779;52.264;6.154;2022-07-04T04:13:34;7.03;;;2.72;;
47021;SDS011;32779;52.264;6.154;2022-07-04T04:16:00;8.18;;;3.40;;
47021;SDS011;32779;52.264;6.154;2022-07-04T04:20:52;7.20;;;2.80;;
47021;SDS011;32779;52.264;6.154;2022-07-04T04:23:17;5.63;;;2.97;;
47021;SDS011;32779;52.264;6.154;2022-07-04T04:28:08;3.38;;;2.53;;
47021;SDS011;32779;52.264;6.154;2022-07-04T04:30:34;5.07;;;2.97;;
47021;SDS011;32779;52.264;6.154;2022-07-04T04:35:25;5.65;;;2.28;;
47021;SDS011;32779;52.264;6.154;2022-07-04T04:40:16;4.15;;;2.35;;
47021;SDS011;32779;52.264;6.154;2022-07-04T04:45:07;6.78;;;2.85;;
47021;SDS011;32779;52.264;6.154;2022-07-04T04:49:59;8.82;;;2.58;;
47021;SDS011;32779;52.264;6.154;2022-07-04T04:54:51;4.78;;;2.95;;
47021;SDS011;32779;52.264;6.154;2022-07-04T04:57:17;4.38;;;2.20;;
47021;SDS011;32779;52.264;6.154;2022-07-04T04:59:42;9.98;;;2.50;;
47021;SDS011;32779;52.264;6.154;2022-07-04T05:04:34;7.20;;;2.85;;
47021;SDS011;32779;52.264;6.154;2022-07-04T05:07:00;9.18;;;3.10;;
47021;SDS011;32779;52.264;6.154;2022-07-04T05:11:51;4.85;;;2.60;;
47021;SDS011;32779;52.264;6.154;2022-07-04T05:16:42;8.02;;;2.50;;
47021;SDS011;32779;52.264;6.154;2022-07-04T05:21:34;4.90;;;2.55;;
47021;SDS011;32779;52.264;6.154;2022-07-04T05:23:59;5.93;;;3.00;;
47021;SDS011;32779;52.264;6.154;2022-07-04T05:28:51;9.10;;;3.20;;
47021;SDS011;32779;52.264;6.154;2022-07-04T05:33:42;7.70;;;3.00;;
47021;SDS011;32779;52.264;6.154;2022-07-04T05:36:07;6.13;;;2.90;;
47021;SDS011;32779;52.264;6.154;2022-07-04T05:40:59;6.65;;;3.35;;
47021;SDS011;32779;52.264;6.154;2022-07-04T05:45:50;5.53;;;3.05;;
47021;SDS011;32779;52.264;6.154;2022-07-04T05:50:42;7.57;;;2.88;;
47021;SDS011;32779;52.264;6.154;2022-07-04T05:55:33;10.50;;;2.78;;
47021;SDS011;32779;52.264;6.154;2022-07-04T05:57:59;5.32;;;3.35;;
47021;SDS011;32779;52.264;6.154;2022-07-04T06:02:50;6.45;;;3.00;;
47021;SDS011;32779;52.264;6.154;2022-07-04T06:07:42;7.00;;;3.08;;
47021;SDS011;32779;52.264;6.154;2022-07-04T06:12:34;8.02;;;3.15;;
47021;SDS011;32779;52.264;6.154;2022-07-04T06:17:25;6.80;;;3.58;;
47021;SDS011;32779;52.264;6.154;2022-07-04T06:22:16;7.57;;;2.95;;
47021;SDS011;32779;52.264;6.154;2022-07-04T06:27:07;6.55;;;2.58;;
47021;SDS011;32779;52.264;6.154;2022-07-04T06:31:58;4.95;;;2.63;;
47021;SDS011;32779;52.264;6.154;2022-07-04T06:37:26;6.40;;;2.42;;
47021;SDS011;32779;52.264;6.154;2022-07-04T06:42:17;9.23;;;2.63;;
47021;SDS011;32779;52.264;6.154;2022-07-04T06:47:08;6.70;;;2.45;;
47021;SDS011;32779;52.264;6.154;2022-07-04T06:51:59;4.22;;;1.90;;
47021;SDS011;32779;52.264;6.154;2022-07-04T06:56:50;2.42;;;1.90;;
47021;SDS011;32779;52.264;6.154;2022-07-04T06:59:16;6.63;;;2.05;;
47021;SDS011;32779;52.264;6.154;2022-07-04T07:04:07;8.13;;;2.17;;
47021;SDS011;32779;52.264;6.154;2022-07-04T07:06:32;3.65;;;1.67;;
47021;SDS011;32779;52.264;6.154;2022-07-04T07:08:58;8.73;;;1.80;;
47021;SDS011;32779;52.264;6.154;2022-07-04T07:11:23;6.57;;;1.83;;
47021;SDS011;32779;52.264;6.154;2022-07-04T07:13:50;6.28;;;1.65;;
47021;SDS011;32779;52.264;6.154;2022-07-04T07:16:16;5.25;;;1.73;;
47021;SDS011;32779;52.264;6.154;2022-07-04T07:18:43;4.60;;;1.65;;
47021;SDS011;32779;52.264;6.154;2022-07-04T07:21:09;7.25;;;1.77;;
47021;SDS011;32779;52.264;6.154;2022-07-04T07:23:37;5.35;;;1.40;;
47021;SDS011;32779;52.264;6.154;2022-07-04T07:26:03;6.25;;;1.85;;
47021;SDS011;32779;52.264;6.154;2022-07-04T07:28:29;4.97;;;1.65;;
47021;SDS011;32779;52.264;6.154;2022-07-04T07:30:55;3.65;;;1.60;;
47021;SDS011;32779;52.264;6.154;2022-07-04T07:33:20;7.82;;;1.75;;
47021;SDS011;32779;52.264;6.154;2022-07-04T07:35:46;5.72;;;1.50;;
47021;SDS011;32779;52.264;6.154;2022-07-04T07:38:11;7.40;;;1.90;;
47021;SDS011;32779;52.264;6.154;2022-07-04T07:40:37;6.53;;;1.42;;
47021;SDS011;32779;52.264;6.154;2022-07-04T07:43:02;6.20;;;1.95;;
47021;SDS011;32779;52.264;6.154;2022-07-04T07:45:28;7.85;;;1.73;;
47021;SDS011;32779;52.264;6.154;2022-07-04T07:47:53;8.23;;;1.70;;
47021;SDS011;32779;52.264;6.154;2022-07-04T07:50:19;7.05;;;2.83;;
47021;SDS011;32779;52.264;6.154;2022-07-04T07:52:45;4.85;;;1.50;;
47021;SDS011;32779;52.264;6.154;2022-07-04T07:55:10;3.92;;;1.50;;
47021;SDS011;32779;52.264;6.154;2022-07-04T07:57:36;5.20;;;1.50;;
47021;SDS011;32779;52.264;6.154;2022-07-04T08:00:03;2.92;;;1.48;;
47021;SDS011;32779;52.264;6.154;2022-07-04T08:02:29;5.85;;;1.83;;
47021;SDS011;32779;52.264;6.154;2022-07-04T08:05:14;6.97;;;1.75;;
47021;SDS011;32779;52.264;6.154;2022-07-04T08:07:39;15.45;;;2.03;;
47021;SDS011;32779;52.264;6.154;2022-07-04T08:10:05;6.35;;;1.58;;
47021;SDS011;32779;52.264;6.154;2022-07-04T08:12:31;4.75;;;1.50;;
47021;SDS011;32779;52.264;6.154;2022-07-04T08:14:57;6.57;;;1.70;;
47021;SDS011;32779;52.264;6.154;2022-07-04T08:17:23;4.80;;;1.65;;
47021;SDS011;32779;52.264;6.154;2022-07-04T08:19:48;5.82;;;1.50;;
47021;SDS011;32779;52.264;6.154;2022-07-04T08:22:15;2.85;;;0.98;;
47021;SDS011;32779;52.264;6.154;2022-07-04T08:24:40;5.28;;;1.30;;
47021;SDS011;32779;52.264;6.154;2022-07-04T08:27:07;4.63;;;1.17;;
47021;SDS011;32779;52.264;6.154;2022-07-04T08:29:32;6.13;;;1.63;;
47021;SDS011;32779;52.264;6.154;2022-07-04T08:31:58;6.95;;;1.52;;
47021;SDS011;32779;52.264;6.154;2022-07-04T08:34:24;6.75;;;1.23;;
47021;SDS011;32779;52.264;6.154;2022-07-04T08:36:49;6.80;;;1.88;;
47021;SDS011;32779;52.264;6.154;2022-07-04T08:39:15;7.95;;;1.60;;
47021;SDS011;32779;52.264;6.154;2022-07-04T08:41:41;5.40;;;1.05;;
47021;SDS011;32779;52.264;6.154;2022-07-04T08:44:08;3.50;;;1.60;;
47021;SDS011;32779;52.264;6.154;2022-07-04T08:46:36;6.18;;;1.10;;
47021;SDS011;32779;52.264;6.154;2022-07-04T08:49:06;4.03;;;1.20;;
47021;SDS011;32779;52.264;6.154;2022-07-04T08:51:44;2.75;;;1.10;;
47021;SDS011;32779;52.264;6.154;2022-07-04T08:54:16;4.32;;;1.00;;
47021;SDS011;32779;52.264;6.154;2022-07-04T08:57:01;4.53;;;1.10;;
47021;SDS011;32779;52.264;6.154;2022-07-04T08:59:45;4.85;;;1.25;;
47021;SDS011;32779;52.264;6.154;2022-07-04T09:02:15;3.97;;;1.30;;
47021;SDS011;32779;52.264;6.154;2022-07-04T09:04:43;4.68;;;1.83;;
47021;SDS011;32779;52.264;6.154;2022-07-04T09:07:12;5.63;;;1.60;;
47021;SDS011;32779;52.264;6.154;2022-07-04T09:09:39;2.85;;;1.02;;
47021;SDS011;32779;52.264;6.154;2022-07-04T09:12:06;9.35;;;1.15;;
47021;SDS011;32779;52.264;6.154;2022-07-04T09:14:32;10.35;;;1.17;;
47021;SDS011;32779;52.264;6.154;2022-07-04T09:16:58;5.18;;;0.77;;
47021;SDS011;32779;52.264;6.154;2022-07-04T09:19:24;2.58;;;0.95;;
47021;SDS011;32779;52.264;6.154;2022-07-04T09:21:50;2.65;;;0.95;;
47021;SDS011;32779;52.264;6.154;2022-07-04T09:24:16;1.88;;;1.00;;
47021;SDS011;32779;52.264;6.154;2022-07-04T09:27:04;8.50;;;1.42;;
47021;SDS011;32779;52.264;6.154;2022-07-04T09:29:29;6.72;;;1.33;;
47021;SDS011;32779;52.264;6.154;2022-07-04T09:31:55;7.38;;;1.05;;
47021;SDS011;32779;52.264;6.154;2022-07-04T09:34:21;3.40;;;0.77;;
47021;SDS011;32779;52.264;6.154;2022-07-04T09:36:47;6.47;;;1.17;;
47021;SDS011;32779;52.264;6.154;2022-07-04T09:39:20;2.58;;;0.60;;
47021;SDS011;32779;52.264;6.154;2022-07-04T09:44:25;3.20;;;0.70;;
47021;SDS011;32779;52.264;6.154;2022-07-04T09:47:26;1.27;;;0.50;;
47021;SDS011;32779;52.264;6.154;2022-07-04T09:55:23;5.18;;;0.90;;
47021;SDS011;32779;52.264;6.154;2022-07-04T09:58:03;6.45;;;0.80;;
47021;SDS011;32779;52.264;6.154;2022-07-04T10:00:35;5.55;;;0.73;;
47021;SDS011;32779;52.264;6.154;2022-07-04T10:03:16;3.25;;;0.65;;
47021;SDS011;32779;52.264;6.154;2022-07-04T10:05:41;2.63;;;0.55;;
47021;SDS011;32779;52.264;6.154;2022-07-04T10:08:08;3.15;;;0.98;;
47021;SDS011;32779;52.264;6.154;2022-07-04T10:10:37;3.55;;;0.85;;
47021;SDS011;32779;52.264;6.154;2022-07-04T10:13:11;4.75;;;1.30;;
47021;SDS011;32779;52.264;6.154;2022-07-04T10:15:41;4.05;;;0.93;;
47021;SDS011;32779;52.264;6.154;2022-07-04T10:18:08;4.68;;;1.10;;
47021;SDS011;32779;52.264;6.154;2022-07-04T10:20:53;2.55;;;0.75;;
47021;SDS011;32779;52.264;6.154;2022-07-04T10:23:20;1.33;;;0.47;;
47021;SDS011;32779;52.264;6.154;2022-07-04T10:25:47;2.20;;;0.70;;
47021;SDS011;32779;52.264;6.154;2022-07-04T10:28:17;6.22;;;1.08;;
47021;SDS011;32779;52.264;6.154;2022-07-04T10:30:45;3.72;;;1.10;;
47021;SDS011;32779;52.264;6.154;2022-07-04T10:33:14;3.33;;;0.90;;
47021;SDS011;32779;52.264;6.154;2022-07-04T10:38:21;3.83;;;1.00;;
47021;SDS011;32779;52.264;6.154;2022-07-04T10:40:55;3.65;;;0.95;;
47021;SDS011;32779;52.264;6.154;2022-07-04T10:48:27;1.80;;;0.68;;
47021;SDS011;32779;52.264;6.154;2022-07-04T10:51:00;3.65;;;0.60;;
47021;SDS011;32779;52.264;6.154;2022-07-04T10:53:26;2.05;;;0.68;;
47021;SDS011;32779;52.264;6.154;2022-07-04T10:55:53;3.60;;;0.77;;
47021;SDS011;32779;52.264;6.154;2022-07-04T11:01:10;4.22;;;1.05;;
47021;SDS011;32779;52.264;6.154;2022-07-04T11:17:13;3.17;;;0.68;;
47021;SDS011;32779;52.264;6.154;2022-07-04T11:19:46;2.60;;;0.60;;
47021;SDS011;32779;52.264;6.154;2022-07-04T11:22:13;2.30;;;0.60;;
47021;SDS011;32779;52.264;6.154;2022-07-04T11:24:47;2.55;;;0.57;;
47021;SDS011;32779;52.264;6.154;2022-07-04T11:27:13;1.90;;;0.80;;
47021;SDS011;32779;52.264;6.154;2022-07-04T11:29:48;1.65;;;0.80;;
47021;SDS011;32779;52.264;6.154;2022-07-04T11:32:15;2.15;;;0.80;;
47021;SDS011;32779;52.264;6.154;2022-07-04T11:34:40;2.20;;;0.65;;
47021;SDS011;32779;52.264;6.154;2022-07-04T11:37:06;1.75;;;0.70;;
47021;SDS011;32779;52.264;6.154;2022-07-04T11:39:32;2.80;;;0.70;;
47021;SDS011;32779;52.264;6.154;2022-07-04T11:41:57;1.25;;;0.50;;
47021;SDS011;32779;52.264;6.154;2022-07-04T11:44:42;2.67;;;0.60;;
47021;SDS011;32779;52.264;6.154;2022-07-04T11:50:14;2.15;;;0.70;;
47021;SDS011;32779;52.264;6.154;2022-07-04T11:52:46;1.15;;;0.52;;
47021;SDS011;32779;52.264;6.154;2022-07-04T11:55:14;3.22;;;0.90;;
47021;SDS011;32779;52.264;6.154;2022-07-04T11:57:42;1.13;;;0.60;;
47021;SDS011;32779;52.264;6.154;2022-07-04T12:02:39;0.90;;;0.52;;
47021;SDS011;32779;52.264;6.154;2022-07-04T12:05:06;3.22;;;0.98;;
47021;SDS011;32779;52.264;6.154;2022-07-04T12:07:33;4.05;;;0.60;;
47021;SDS011;32779;52.264;6.154;2022-07-04T12:10:08;0.70;;;0.70;;
47021;SDS011;32779;52.264;6.154;2022-07-04T12:15:23;1.60;;;0.52;;
47021;SDS011;32779;52.264;6.154;2022-07-04T12:17:50;1.55;;;0.68;;
47021;SDS011;32779;52.264;6.154;2022-07-04T12:20:19;9.05;;;1.35;;
47021;SDS011;32779;52.264;6.154;2022-07-04T12:22:50;2.08;;;0.60;;
47021;SDS011;32779;52.264;6.154;2022-07-04T12:25:25;0.75;;;0.50;;
47021;SDS011;32779;52.264;6.154;2022-07-04T12:27:56;2.00;;;0.63;;
47021;SDS011;32779;52.264;6.154;2022-07-04T12:30:24;0.57;;;0.55;;
47021;SDS011;32779;52.264;6.154;2022-07-04T12:32:51;3.72;;;0.60;;
47021;SDS011;32779;52.264;6.154;2022-07-04T12:35:31;1.63;;;0.50;;
47021;SDS011;32779;52.264;6.154;2022-07-04T12:38:04;0.93;;;0.40;;
47021;SDS011;32779;52.264;6.154;2022-07-04T12:40:36;2.88;;;0.60;;
47021;SDS011;32779;52.264;6.154;2022-07-04T12:43:14;2.05;;;0.60;;
47021;SDS011;32779;52.264;6.154;2022-07-04T12:45:44;3.60;;;0.50;;
47021;SDS011;32779;52.264;6.154;2022-07-04T12:48:25;1.58;;;0.60;;
47021;SDS011;32779;52.264;6.154;2022-07-04T12:50:52;3.80;;;0.80;;
47021;SDS011;32779;52.264;6.154;2022-07-04T12:53:19;1.67;;;0.52;;
47021;SDS011;32779;52.264;6.154;2022-07-04T12:55:46;3.35;;;0.73;;
47021;SDS011;32779;52.264;6.154;2022-07-04T12:58:14;2.35;;;0.68;;
47021;SDS011;32779;52.264;6.154;2022-07-04T13:00:40;3.60;;;0.60;;
47021;SDS011;32779;52.264;6.154;2022-07-04T13:03:06;9.75;;;1.75;;
47021;SDS011;32779;52.264;6.154;2022-07-04T13:05:33;1.45;;;0.40;;
47021;SDS011;32779;52.264;6.154;2022-07-04T13:08:01;0.93;;;0.60;;
47021;SDS011;32779;52.264;6.154;2022-07-04T13:10:26;0.85;;;0.60;;
47021;SDS011;32779;52.264;6.154;2022-07-04T13:12:52;1.40;;;0.50;;
47021;SDS011;32779;52.264;6.154;2022-07-04T13:15:18;0.77;;;0.40;;
47021;SDS011;32779;52.264;6.154;2022-07-04T13:17:43;2.25;;;0.45;;
47021;SDS011;32779;52.264;6.154;2022-07-04T13:20:09;1.08;;;0.40;;
47021;SDS011;32779;52.264;6.154;2022-07-04T13:22:35;1.20;;;0.68;;
47021;SDS011;32779;52.264;6.154;2022-07-04T13:25:01;1.45;;;0.47;;
47021;SDS011;32779;52.264;6.154;2022-07-04T13:27:28;3.58;;;0.60;;
47021;SDS011;32779;52.264;6.154;2022-07-04T13:29:54;0.32;;;0.28;;
47021;SDS011;32779;52.264;6.154;2022-07-04T13:32:20;1.00;;;0.60;;
47021;SDS011;32779;52.264;6.154;2022-07-04T13:34:46;0.80;;;0.52;;
47021;SDS011;32779;52.264;6.154;2022-07-04T13:37:12;6.78;;;0.98;;
47021;SDS011;32779;52.264;6.154;2022-07-04T13:39:40;33.08;;;2.13;;
47021;SDS011;32779;52.264;6.154;2022-07-04T13:42:05;1.13;;;0.50;;
47021;SDS011;32779;52.264;6.154;2022-07-04T13:44:31;0.47;;;0.40;;
47021;SDS011;32779;52.264;6.154;2022-07-04T13:46:57;1.85;;;0.60;;
47021;SDS011;32779;52.264;6.154;2022-07-04T13:49:23;1.73;;;0.43;;
47021;SDS011;32779;52.264;6.154;2022-07-04T13:51:49;2.50;;;0.73;;
47021;SDS011;32779;52.264;6.154;2022-07-04T13:54:14;1.48;;;0.50;;
47021;SDS011;32779;52.264;6.154;2022-07-04T13:56:40;0.57;;;0.43;;
47021;SDS011;32779;52.264;6.154;2022-07-04T13:59:07;0.82;;;0.50;;
47021;SDS011;32779;52.264;6.154;2022-07-04T14:01:32;7.20;;;0.70;;
47021;SDS011;32779;52.264;6.154;2022-07-04T14:03:58;1.15;;;0.60;;
47021;SDS011;32779;52.264;6.154;2022-07-04T14:06:24;3.08;;;0.70;;
47021;SDS011;32779;52.264;6.154;2022-07-04T14:08:50;1.55;;;0.57;;
47021;SDS011;32779;52.264;6.154;2022-07-04T14:11:15;1.15;;;0.47;;
47021;SDS011;32779;52.264;6.154;2022-07-04T14:13:41;3.63;;;0.63;;
47021;SDS011;32779;52.264;6.154;2022-07-04T14:16:07;1.35;;;0.70;;
47021;SDS011;32779;52.264;6.154;2022-07-04T14:18:33;1.05;;;0.43;;
47021;SDS011;32779;52.264;6.154;2022-07-04T14:20:58;2.95;;;0.82;;
47021;SDS011;32779;52.264;6.154;2022-07-04T14:23:24;2.60;;;0.60;;
47021;SDS011;32779;52.264;6.154;2022-07-04T14:26:05;2.28;;;0.70;;
47021;SDS011;32779;52.264;6.154;2022-07-04T14:28:31;2.08;;;0.77;;
47021;SDS011;32779;52.264;6.154;2022-07-04T14:30:57;2.33;;;0.80;;
47021;SDS011;32779;52.264;6.154;2022-07-04T14:33:23;0.98;;;0.50;;
47021;SDS011;32779;52.264;6.154;2022-07-04T14:35:49;6.95;;;0.65;;
47021;SDS011;32779;52.264;6.154;2022-07-04T14:38:14;1.00;;;0.40;;
47021;SDS011;32779;52.264;6.154;2022-07-04T14:40:40;2.28;;;0.50;;
47021;SDS011;32779;52.264;6.154;2022-07-04T14:43:09;1.90;;;0.70;;
47021;SDS011;32779;52.264;6.154;2022-07-04T14:45:34;4.18;;;0.70;;
47021;SDS011;32779;52.264;6.154;2022-07-04T14:48:00;1.63;;;0.60;;
47021;SDS011;32779;52.264;6.154;2022-07-04T14:50:25;1.65;;;0.50;;
47021;SDS011;32779;52.264;6.154;2022-07-04T14:52:51;2.58;;;0.60;;
47021;SDS011;32779;52.264;6.154;2022-07-04T14:55:16;1.35;;;0.60;;
47021;SDS011;32779;52.264;6.154;2022-07-04T14:57:42;2.40;;;0.60;;
47021;SDS011;32779;52.264;6.154;2022-07-04T15:00:08;1.45;;;0.60;;
47021;SDS011;32779;52.264;6.154;2022-07-04T15:02:34;2.45;;;0.60;;
47021;SDS011;32779;52.264;6.154;2022-07-04T15:04:59;2.58;;;0.70;;
47021;SDS011;32779;52.264;6.154;2022-07-04T15:07:25;2.38;;;0.65;;
47021;SDS011;32779;52.264;6.154;2022-07-04T15:09:51;1.90;;;0.50;;
47021;SDS011;32779;52.264;6.154;2022-07-04T15:12:16;4.35;;;0.80;;
47021;SDS011;32779;52.264;6.154;2022-07-04T15:14:42;1.42;;;0.50;;
47021;SDS011;32779;52.264;6.154;2022-07-04T15:17:07;3.65;;;0.50;;
47021;SDS011;32779;52.264;6.154;2022-07-04T15:19:33;0.60;;;0.50;;
47021;SDS011;32779;52.264;6.154;2022-07-04T15:22:18;3.38;;;0.80;;
47021;SDS011;32779;52.264;6.154;2022-07-04T15:25:03;0.38;;;0.30;;
47021;SDS011;32779;52.264;6.154;2022-07-04T15:27:29;3.03;;;1.02;;
47021;SDS011;32779;52.264;6.154;2022-07-04T15:29:55;1.77;;;0.65;;
47021;SDS011;32779;52.264;6.154;2022-07-04T15:32:20;2.55;;;0.50;;
47021;SDS011;32779;52.264;6.154;2022-07-04T15:34:46;3.40;;;0.50;;
47021;SDS011;32779;52.264;6.154;2022-07-04T15:37:11;1.65;;;0.60;;
47021;SDS011;32779;52.264;6.154;2022-07-04T15:39:37;1.40;;;0.57;;
47021;SDS011;32779;52.264;6.154;2022-07-04T15:42:02;0.43;;;0.30;;
47021;SDS011;32779;52.264;6.154;2022-07-04T15:44:28;1.13;;;0.55;;
47021;SDS011;32779;52.264;6.154;2022-07-04T15:46:54;2.35;;;0.50;;
47021;SDS011;32779;52.264;6.154;2022-07-04T15:49:35;2.05;;;0.73;;
47021;SDS011;32779;52.264;6.154;2022-07-04T15:52:02;0.73;;;0.60;;
47021;SDS011;32779;52.264;6.154;2022-07-04T15:54:30;2.72;;;0.65;;
47021;SDS011;32779;52.264;6.154;2022-07-04T15:56:55;0.95;;;0.30;;
47021;SDS011;32779;52.264;6.154;2022-07-04T15:59:21;1.55;;;0.63;;
47021;SDS011;32779;52.264;6.154;2022-07-04T16:01:47;1.33;;;0.50;;
47021;SDS011;32779;52.264;6.154;2022-07-04T16:04:12;1.20;;;0.63;;
47021;SDS011;32779;52.264;6.154;2022-07-04T16:06:38;1.35;;;0.60;;
47021;SDS011;32779;52.264;6.154;2022-07-04T16:09:05;0.73;;;0.50;;
47021;SDS011;32779;52.264;6.154;2022-07-04T16:11:31;1.55;;;0.60;;
47021;SDS011;32779;52.264;6.154;2022-07-04T16:13:57;4.68;;;0.85;;
47021;SDS011;32779;52.264;6.154;2022-07-04T16:16:22;2.22;;;0.70;;
47021;SDS011;32779;52.264;6.154;2022-07-04T16:18:48;3.15;;;0.60;;
47021;SDS011;32779;52.264;6.154;2022-07-04T16:21:13;2.05;;;0.80;;
47021;SDS011;32779;52.264;6.154;2022-07-04T16:23:39;0.98;;;0.75;;
47021;SDS011;32779;52.264;6.154;2022-07-04T16:26:05;1.45;;;0.80;;
47021;SDS011;32779;52.264;6.154;2022-07-04T16:28:31;2.67;;;1.50;;
47021;SDS011;32779;52.264;6.154;2022-07-04T16:30:57;1.98;;;0.93;;
47021;SDS011;32779;52.264;6.154;2022-07-04T16:33:22;2.65;;;0.60;;
47021;SDS011;32779;52.264;6.154;2022-07-04T16:35:48;3.20;;;0.85;;
47021;SDS011;32779;52.264;6.154;2022-07-04T16:38:15;1.45;;;0.57;;
47021;SDS011;32779;52.264;6.154;2022-07-04T16:40:41;2.35;;;0.60;;
47021;SDS011;32779;52.264;6.154;2022-07-04T16:43:08;4.85;;;0.70;;
47021;SDS011;32779;52.264;6.154;2022-07-04T16:45:34;0.95;;;0.50;;
47021;SDS011;32779;52.264;6.154;2022-07-04T16:48:00;2.83;;;0.47;;
47021;SDS011;32779;52.264;6.154;2022-07-04T16:50:29;1.00;;;0.50;;
47021;SDS011;32779;52.264;6.154;2022-07-04T16:52:55;1.48;;;0.50;;
47021;SDS011;32779;52.264;6.154;2022-07-04T16:55:20;3.50;;;0.82;;
47021;SDS011;32779;52.264;6.154;2022-07-04T16:57:46;2.10;;;0.80;;
47021;SDS011;32779;52.264;6.154;2022-07-04T17:00:12;0.75;;;0.57;;
47021;SDS011;32779;52.264;6.154;2022-07-04T17:02:38;1.92;;;0.50;;
47021;SDS011;32779;52.264;6.154;2022-07-04T17:05:04;0.60;;;0.47;;
47021;SDS011;32779;52.264;6.154;2022-07-04T17:07:30;1.77;;;0.70;;
47021;SDS011;32779;52.264;6.154;2022-07-04T17:09:56;1.30;;;0.60;;
47021;SDS011;32779;52.264;6.154;2022-07-04T17:12:21;0.68;;;0.45;;
47021;SDS011;32779;52.264;6.154;2022-07-04T17:14:49;1.77;;;0.80;;
47021;SDS011;32779;52.264;6.154;2022-07-04T17:17:14;1.52;;;0.65;;
47021;SDS011;32779;52.264;6.154;2022-07-04T17:19:42;2.00;;;0.75;;
47021;SDS011;32779;52.264;6.154;2022-07-04T17:22:08;4.15;;;0.60;;
47021;SDS011;32779;52.264;6.154;2022-07-04T17:24:34;1.20;;;0.57;;
47021;SDS011;32779;52.264;6.154;2022-07-04T17:27:00;3.78;;;0.50;;
47021;SDS011;32779;52.264;6.154;2022-07-04T17:29:25;0.95;;;0.43;;
47021;SDS011;32779;52.264;6.154;2022-07-04T17:31:51;4.20;;;0.60;;
47021;SDS011;32779;52.264;6.154;2022-07-04T17:34:16;0.90;;;0.40;;
47021;SDS011;32779;52.264;6.154;2022-07-04T17:36:44;0.50;;;0.50;;
47021;SDS011;32779;52.264;6.154;2022-07-04T17:39:10;1.65;;;0.52;;
47021;SDS011;32779;52.264;6.154;2022-07-04T17:41:36;0.80;;;0.60;;
47021;SDS011;32779;52.264;6.154;2022-07-04T17:44:14;1.27;;;0.55;;
47021;SDS011;32779;52.264;6.154;2022-07-04T17:46:43;0.68;;;0.60;;
47021;SDS011;32779;52.264;6.154;2022-07-04T17:49:09;5.70;;;0.50;;
47021;SDS011;32779;52.264;6.154;2022-07-04T17:51:39;1.83;;;0.63;;
47021;SDS011;32779;52.264;6.154;2022-07-04T17:54:06;0.77;;;0.55;;
47021;SDS011;32779;52.264;6.154;2022-07-04T17:56:33;1.60;;;0.52;;
47021;SDS011;32779;52.264;6.154;2022-07-04T17:58:59;0.55;;;0.40;;